Time;durP1;ratioP1;P1;durP2;ratioP2;P2;SDS_P1;SDS_P2;PMS_P1;PMS_P2;Temp;Humidity;BMP_temperature;BMP_pressure;BME280_temperature;BME280_humidity;BME280_pressure;Samples;Min_cycle;Max_cycle;Signal;HPM_P1;HPM_P2
2021/06/22 00:01:05;;;;;;;15.30;7.80;;;;;;;;;;5085142;28;20024;-77
2021/06/22 00:03:31;;;;;;;20.17;8.82;;;;;;;;;;5088689;28;20103;-75
2021/06/22 00:05:57;;;;;;;16.13;8.15;;;;;;;;;;5088312;28;20166;-75
2021/06/22 00:08:26;;;;;;;24.77;8.65;;;;;;;;;;5091242;28;20063;-66
2021/06/22 00:10:52;;;;;;;20.02;8.40;;;;;;;;;;5086559;28;20050;-66
2021/06/22 00:13:18;;;;;;;28.02;8.77;;;;;;;;;;5087072;28;20082;-71
2021/06/22 00:15:45;;;;;;;25.48;8.25;;;;;;;;;;5088522;28;20103;-82
2021/06/22 00:18:13;;;;;;;23.75;7.30;;;;;;;;;;5097188;28;20035;-67
2021/06/22 00:20:40;;;;;;;26.77;8.45;;;;;;;;;;5091722;28;20060;-66
2021/06/22 00:23:06;;;;;;;25.52;8.50;;;;;;;;;;5089227;28;20032;-79
2021/06/22 00:25:32;;;;;;;23.95;8.48;;;;;;;;;;5088690;28;20016;-67
2021/06/22 00:27:58;;;;;;;28.80;8.82;;;;;;;;;;5082724;28;20040;-66
2021/06/22 00:30:25;;;;;;;21.35;8.73;;;;;;;;;;5093011;28;20108;-78
2021/06/22 00:32:51;;;;;;;25.45;8.95;;;;;;;;;;5091654;28;20020;-77
2021/06/22 00:35:18;;;;;;;26.50;8.70;;;;;;;;;;5087243;28;20024;-64
2021/06/22 00:37:44;;;;;;;21.23;8.20;;;;;;;;;;5091883;28;20027;-66
2021/06/22 00:40:12;;;;;;;22.40;8.57;;;;;;;;;;5091945;28;20036;-78
2021/06/22 00:42:39;;;;;;;29.55;8.68;;;;;;;;;;5082405;28;20374;-73
2021/06/22 00:45:06;;;;;;;20.10;8.18;;;;;;;;;;5092350;28;20024;-65
2021/06/22 00:47:32;;;;;;;26.52;9.20;;;;;;;;;;5093166;28;20027;-79
2021/06/22 00:49:58;;;;;;;22.13;8.65;;;;;;;;;;5082921;28;20032;-67
2021/06/22 00:52:29;;;;;;;21.45;8.13;;;;;;;;;;5084254;28;20028;-66
2021/06/22 00:54:56;;;;;;;25.40;8.63;;;;;;;;;;5089216;28;20020;-66
2021/06/22 00:57:22;;;;;;;19.42;8.48;;;;;;;;;;5083814;28;20028;-65
2021/06/22 00:59:49;;;;;;;24.23;8.88;;;;;;;;;;5089083;28;20121;-77
2021/06/22 01:02:15;;;;;;;18.83;9.48;;;;;;;;;;5091339;28;20155;-69
2021/06/22 01:04:41;;;;;;;20.33;8.45;;;;;;;;;;5090819;28;20423;-75
2021/06/22 01:07:10;;;;;;;21.40;8.75;;;;;;;;;;5084649;28;20028;-65
2021/06/22 01:09:36;;;;;;;23.25;9.90;;;;;;;;;;5082887;28;20038;-65
2021/06/22 01:12:03;;;;;;;29.35;8.57;;;;;;;;;;5087488;28;20021;-64
2021/06/22 01:14:29;;;;;;;20.23;8.70;;;;;;;;;;5078561;28;20024;-68
2021/06/22 01:16:55;;;;;;;17.85;8.77;;;;;;;;;;5090474;28;20115;-65
2021/06/22 01:19:21;;;;;;;21.58;9.18;;;;;;;;;;5087144;28;20447;-65
2021/06/22 01:21:48;;;;;;;20.00;8.90;;;;;;;;;;5089573;28;20127;-75
2021/06/22 01:24:15;;;;;;;17.88;9.25;;;;;;;;;;5087165;28;20025;-63
2021/06/22 01:26:45;;;;;;;14.90;9.23;;;;;;;;;;5088237;28;20048;-77
2021/06/22 01:29:11;;;;;;;18.63;9.18;;;;;;;;;;5082064;28;20484;-65
2021/06/22 01:31:40;;;;;;;26.02;9.98;;;;;;;;;;5092069;28;20020;-65
2021/06/22 01:34:06;;;;;;;18.75;9.50;;;;;;;;;;5085253;28;20618;-79
2021/06/22 01:36:34;;;;;;;20.88;9.82;;;;;;;;;;5087418;28;20517;-78
2021/06/22 01:39:00;;;;;;;18.33;9.68;;;;;;;;;;5086524;28;20039;-78
2021/06/22 01:41:26;;;;;;;16.15;9.05;;;;;;;;;;5092821;28;20396;-70
2021/06/22 01:43:52;;;;;;;18.08;9.13;;;;;;;;;;5087345;28;20024;-64
2021/06/22 01:46:19;;;;;;;21.98;9.45;;;;;;;;;;5086281;28;20028;-70
2021/06/22 01:48:45;;;;;;;19.85;8.57;;;;;;;;;;5085599;28;20469;-65
2021/06/22 01:51:11;;;;;;;22.52;9.15;;;;;;;;;;5090967;28;20024;-70
2021/06/22 01:53:38;;;;;;;20.60;8.82;;;;;;;;;;5086628;28;20047;-75
2021/06/22 01:56:04;;;;;;;22.90;9.57;;;;;;;;;;5091260;28;20031;-79
2021/06/22 01:58:30;;;;;;;20.50;8.77;;;;;;;;;;5079493;28;21607;-80
2021/06/22 02:00:57;;;;;;;20.88;8.90;;;;;;;;;;5081399;28;20036;-73
2021/06/22 02:03:26;;;;;;;24.55;9.20;;;;;;;;;;5080762;28;20020;-79
2021/06/22 02:05:52;;;;;;;23.63;8.23;;;;;;;;;;5089733;28;20052;-70
2021/06/22 02:08:21;;;;;;;34.05;8.73;;;;;;;;;;5076319;28;20029;-69
2021/06/22 02:10:50;;;;;;;25.58;7.97;;;;;;;;;;5083882;28;20111;-64
2021/06/22 02:13:16;;;;;;;28.63;9.02;;;;;;;;;;5087612;28;20071;-65
2021/06/22 02:15:42;;;;;;;22.35;7.93;;;;;;;;;;5080690;28;20028;-63
2021/06/22 02:18:09;;;;;;;26.00;8.30;;;;;;;;;;5083806;28;20028;-79
2021/06/22 02:20:36;;;;;;;27.45;8.80;;;;;;;;;;5084899;28;20055;-66
2021/06/22 02:23:02;;;;;;;25.95;8.10;;;;;;;;;;5087577;28;20078;-79
2021/06/22 02:25:28;;;;;;;35.78;8.98;;;;;;;;;;5085127;28;20021;-75
2021/06/22 02:28:01;;;;;;;28.80;8.50;;;;;;;;;;5080967;28;20440;-80
2021/06/22 02:30:30;;;;;;;27.05;8.35;;;;;;;;;;5083162;28;20060;-64
2021/06/22 02:32:56;;;;;;;28.80;9.27;;;;;;;;;;5069793;28;20032;-64
2021/06/22 02:35:26;;;;;;;28.25;8.05;;;;;;;;;;5086385;28;20119;-65
2021/06/22 02:37:52;;;;;;;32.45;8.60;;;;;;;;;;5080665;28;20054;-69
2021/06/22 02:40:19;;;;;;;29.05;8.32;;;;;;;;;;5077828;28;20429;-66
2021/06/22 02:42:46;;;;;;;24.50;8.38;;;;;;;;;;5087134;28;20490;-63
2021/06/22 02:45:12;;;;;;;35.67;9.25;;;;;;;;;;5081979;28;20045;-68
2021/06/22 02:47:38;;;;;;;28.60;8.30;;;;;;;;;;5084168;28;20026;-79
2021/06/22 02:50:05;;;;;;;22.42;8.07;;;;;;;;;;5082135;28;20040;-66
2021/06/22 02:52:34;;;;;;;27.58;8.10;;;;;;;;;;5084123;28;20035;-72
2021/06/22 02:55:00;;;;;;;28.75;8.10;;;;;;;;;;5090199;28;20144;-68
2021/06/22 02:57:26;;;;;;;38.03;8.85;;;;;;;;;;5088756;28;20561;-64
2021/06/22 02:59:52;;;;;;;28.35;7.47;;;;;;;;;;5079491;28;20402;-73
2021/06/22 03:02:18;;;;;;;36.55;8.43;;;;;;;;;;5085173;28;20082;-76
2021/06/22 03:04:46;;;;;;;27.95;8.18;;;;;;;;;;5089866;28;20111;-64
2021/06/22 03:07:12;;;;;;;26.67;8.02;;;;;;;;;;5089940;28;20025;-79
2021/06/22 03:09:39;;;;;;;29.70;8.13;;;;;;;;;;5090103;28;20023;-65
2021/06/22 03:12:05;;;;;;;24.40;8.32;;;;;;;;;;5089214;28;20077;-70
2021/06/22 03:14:32;;;;;;;36.40;7.88;;;;;;;;;;5083435;28;20032;-65
2021/06/22 03:17:00;;;;;;;50.05;8.43;;;;;;;;;;5079131;28;20051;-67
2021/06/22 03:19:26;;;;;;;37.00;8.82;;;;;;;;;;5083360;28;20192;-64
2021/06/22 03:21:52;;;;;;;34.95;8.05;;;;;;;;;;5091476;28;20055;-78
2021/06/22 03:24:19;;;;;;;33.45;7.82;;;;;;;;;;5087266;28;20028;-64
2021/06/22 03:26:46;;;;;;;26.23;7.90;;;;;;;;;;5092522;28;20073;-80
2021/06/22 03:29:12;;;;;;;38.47;8.50;;;;;;;;;;5082697;28;20538;-70
2021/06/22 03:31:38;;;;;;;33.90;7.57;;;;;;;;;;5093621;28;20066;-68
2021/06/22 03:34:05;;;;;;;33.60;8.25;;;;;;;;;;5093248;28;20045;-80
2021/06/22 03:36:31;;;;;;;32.72;7.47;;;;;;;;;;5091401;28;20024;-65
2021/06/22 03:38:58;;;;;;;35.38;8.43;;;;;;;;;;5093835;28;20043;-79
2021/06/22 03:41:24;;;;;;;34.72;8.27;;;;;;;;;;5083677;28;20031;-64
2021/06/22 03:43:50;;;;;;;33.60;8.10;;;;;;;;;;5082707;28;20063;-70
2021/06/22 03:46:19;;;;;;;28.40;7.82;;;;;;;;;;5093614;28;20024;-77
2021/06/22 03:48:45;;;;;;;30.92;7.78;;;;;;;;;;5094346;28;20024;-66
2021/06/22 03:51:11;;;;;;;32.53;7.90;;;;;;;;;;5087181;28;20036;-66
2021/06/22 03:53:38;;;;;;;31.48;8.93;;;;;;;;;;5092901;28;20024;-79
2021/06/22 03:56:09;;;;;;;39.90;8.48;;;;;;;;;;5089783;28;20035;-79
2021/06/22 03:58:35;;;;;;;35.00;7.63;;;;;;;;;;5092635;28;20016;-68
2021/06/22 04:01:03;;;;;;;44.40;8.48;;;;;;;;;;5091160;28;20089;-75
2021/06/22 04:03:29;;;;;;;33.50;8.32;;;;;;;;;;5089002;28;20059;-76
2021/06/22 04:05:57;;;;;;;35.58;8.07;;;;;;;;;;5086458;28;20380;-79
2021/06/22 04:08:23;;;;;;;35.08;8.82;;;;;;;;;;5088714;28;20140;-79
2021/06/22 04:10:49;;;;;;;27.55;7.65;;;;;;;;;;5086761;28;20032;-64
2021/06/22 04:13:15;;;;;;;31.85;8.30;;;;;;;;;;5086960;28;20023;-72
2021/06/22 04:15:41;;;;;;;29.98;8.50;;;;;;;;;;5086248;28;20040;-70
2021/06/22 04:18:09;;;;;;;29.60;8.32;;;;;;;;;;5091719;28;20030;-76
2021/06/22 04:20:35;;;;;;;36.13;8.30;;;;;;;;;;5088975;28;20119;-78
2021/06/22 04:23:03;;;;;;;43.35;8.80;;;;;;;;;;5092298;28;20148;-69
2021/06/22 04:25:32;;;;;;;34.75;9.13;;;;;;;;;;5082626;28;20052;-66
2021/06/22 04:28:04;;;;;;;35.58;9.55;;;;;;;;;;5086141;28;20032;-76
2021/06/22 04:30:31;;;;;;;33.75;9.05;;;;;;;;;;5080271;28;20024;-78
2021/06/22 04:32:58;;;;;;;37.83;8.88;;;;;;;;;;5081171;28;20031;-70
2021/06/22 04:35:25;;;;;;;36.30;9.02;;;;;;;;;;5083627;28;20055;-69
2021/06/22 04:37:51;;;;;;;40.65;8.80;;;;;;;;;;5086391;28;20020;-81
2021/06/22 04:40:17;;;;;;;44.83;9.70;;;;;;;;;;5086091;28;20374;-73
2021/06/22 04:42:43;;;;;;;33.63;8.80;;;;;;;;;;5084139;28;20091;-79
2021/06/22 04:45:10;;;;;;;31.73;9.10;;;;;;;;;;5089297;28;20363;-74
2021/06/22 04:47:36;;;;;;;32.60;8.27;;;;;;;;;;5089097;28;20039;-74
2021/06/22 04:50:02;;;;;;;30.80;8.60;;;;;;;;;;5086173;28;20032;-77
2021/06/22 04:52:30;;;;;;;31.77;8.73;;;;;;;;;;5088315;28;20027;-72
2021/06/22 04:54:57;;;;;;;37.00;8.07;;;;;;;;;;5063458;28;20060;-72
2021/06/22 04:57:23;;;;;;;38.63;8.55;;;;;;;;;;5081567;28;20058;-75
2021/06/22 04:59:49;;;;;;;37.75;8.57;;;;;;;;;;5065717;28;20035;-80
2021/06/22 05:02:15;;;;;;;36.67;8.73;;;;;;;;;;5087651;28;20016;-79
2021/06/22 05:04:44;;;;;;;63.50;9.90;;;;;;;;;;5067140;28;20021;-80
2021/06/22 05:07:11;;;;;;;50.20;9.45;;;;;;;;;;5082520;28;20051;-82
2021/06/22 05:09:37;;;;;;;51.03;8.90;;;;;;;;;;5092572;28;20023;-79
2021/06/22 05:12:03;;;;;;;40.72;8.80;;;;;;;;;;5087311;28;20078;-80
2021/06/22 05:14:29;;;;;;;45.13;8.95;;;;;;;;;;5082588;28;20470;-77
2021/06/22 05:16:55;;;;;;;22.80;8.55;;;;;;;;;;5077487;28;20108;-72
2021/06/22 05:19:21;;;;;;;31.63;8.63;;;;;;;;;;5090565;28;20044;-67
2021/06/22 05:21:47;;;;;;;35.17;7.78;;;;;;;;;;5087277;28;20026;-72
2021/06/22 05:24:15;;;;;;;31.48;8.10;;;;;;;;;;5083945;28;20081;-73
2021/06/22 05:26:41;;;;;;;40.22;8.20;;;;;;;;;;5089207;28;20397;-75
2021/06/22 05:29:11;;;;;;;31.30;7.88;;;;;;;;;;5089776;28;20040;-79
2021/06/22 05:31:37;;;;;;;34.15;8.50;;;;;;;;;;5069000;28;20012;-74
2021/06/22 05:34:03;;;;;;;27.77;7.50;;;;;;;;;;5083289;28;20103;-75
2021/06/22 05:36:29;;;;;;;35.78;8.32;;;;;;;;;;5078301;28;20111;-67
2021/06/22 05:38:55;;;;;;;32.47;8.43;;;;;;;;;;5079956;28;20036;-68
2021/06/22 05:41:26;;;;;;;42.60;8.07;;;;;;;;;;5088682;28;20028;-77
2021/06/22 05:43:52;;;;;;;39.70;8.23;;;;;;;;;;5086147;28;20055;-65
2021/06/22 05:46:21;;;;;;;34.60;8.00;;;;;;;;;;5081740;28;20016;-83
2021/06/22 05:48:47;;;;;;;32.72;7.50;;;;;;;;;;5074765;28;20104;-88
2021/06/22 05:51:13;;;;;;;34.25;8.45;;;;;;;;;;5084458;28;20043;-85
2021/06/22 05:53:40;;;;;;;42.92;7.90;;;;;;;;;;5087348;28;20056;-86
2021/06/22 05:56:06;;;;;;;37.17;7.82;;;;;;;;;;5068519;28;20490;-73
2021/06/22 05:58:32;;;;;;;40.70;8.30;;;;;;;;;;5071084;28;20157;-79
2021/06/22 06:00:58;;;;;;;39.55;8.05;;;;;;;;;;5085579;28;20036;-82
2021/06/22 06:03:24;;;;;;;45.55;8.38;;;;;;;;;;5086762;28;20035;-84
2021/06/22 06:05:50;;;;;;;40.33;9.05;;;;;;;;;;5071939;28;20052;-78
2021/06/22 06:08:16;;;;;;;36.08;8.32;;;;;;;;;;5066833;28;20381;-74
2021/06/22 06:10:42;;;;;;;55.70;8.95;;;;;;;;;;5069229;28;20039;-91
2021/06/22 06:13:09;;;;;;;46.88;9.07;;;;;;;;;;5085798;28;20055;-74
2021/06/22 06:15:36;;;;;;;99.53;10.55;;;;;;;;;;5083898;28;20051;-73
2021/06/22 06:18:02;;;;;;;59.53;9.02;;;;;;;;;;5086042;28;20025;-75
2021/06/22 06:20:28;;;;;;;43.92;8.68;;;;;;;;;;5089467;28;20044;-77
2021/06/22 06:22:55;;;;;;;36.40;8.00;;;;;;;;;;5083622;28;20086;-80
2021/06/22 06:25:21;;;;;;;34.03;8.23;;;;;;;;;;5087709;28;20114;-74
2021/06/22 06:30:23;;;;;;;46.30;8.50;;;;;;;;;;5084229;28;20035;-75
2021/06/22 06:32:50;;;;;;;35.25;7.97;;;;;;;;;;5087525;28;20035;-78
2021/06/22 06:35:16;;;;;;;36.80;8.20;;;;;;;;;;5071562;28;20036;-81
2021/06/22 06:37:42;;;;;;;30.58;8.15;;;;;;;;;;5078252;28;20094;-88
2021/06/22 06:40:09;;;;;;;33.47;7.40;;;;;;;;;;5069071;28;20032;-90
2021/06/22 06:42:35;;;;;;;43.22;8.63;;;;;;;;;;5071409;28;20058;-91
2021/06/22 06:45:02;;;;;;;41.60;8.10;;;;;;;;;;5082180;28;20028;-89
2021/06/22 06:47:28;;;;;;;33.70;7.38;;;;;;;;;;5086405;28;20070;-81
2021/06/22 06:49:54;;;;;;;76.20;10.40;;;;;;;;;;5090292;28;20032;-76
2021/06/22 06:52:21;;;;;;;50.08;9.05;;;;;;;;;;5088465;28;20040;-73
2021/06/22 06:54:47;;;;;;;31.42;7.65;;;;;;;;;;5086507;28;20027;-72
2021/06/22 06:57:13;;;;;;;40.08;8.40;;;;;;;;;;5086014;28;20382;-76
2021/06/22 06:59:39;;;;;;;44.53;9.35;;;;;;;;;;5082978;28;20119;-75
2021/06/22 07:02:05;;;;;;;32.40;8.45;;;;;;;;;;5082433;28;20024;-74
2021/06/22 07:04:33;;;;;;;33.63;7.35;;;;;;;;;;5089431;28;20027;-78
2021/06/22 07:06:59;;;;;;;35.67;7.38;;;;;;;;;;5085386;28;20099;-78
2021/06/22 07:09:25;;;;;;;32.15;7.40;;;;;;;;;;5082830;28;20048;-74
2021/06/22 07:11:51;;;;;;;34.00;8.43;;;;;;;;;;5070498;28;20028;-80
2021/06/22 07:14:18;;;;;;;39.88;7.85;;;;;;;;;;5087134;28;20046;-75
2021/06/22 07:16:47;;;;;;;42.63;8.23;;;;;;;;;;5087263;28;20074;-73
2021/06/22 07:19:14;;;;;;;32.28;7.28;;;;;;;;;;5067548;28;20074;-73
2021/06/22 07:21:40;;;;;;;46.45;8.20;;;;;;;;;;5065936;28;20130;-75
2021/06/22 07:24:06;;;;;;;40.03;7.93;;;;;;;;;;5088174;28;20027;-78
2021/06/22 07:26:33;;;;;;;46.00;8.90;;;;;;;;;;5067949;28;20512;-80
2021/06/22 07:29:00;;;;;;;40.17;8.15;;;;;;;;;;5070397;28;20028;-76
2021/06/22 07:31:26;;;;;;;46.25;8.63;;;;;;;;;;5086369;28;20443;-70
2021/06/22 07:33:52;;;;;;;36.50;8.35;;;;;;;;;;5089611;28;20024;-71
2021/06/22 07:36:18;;;;;;;40.85;7.85;;;;;;;;;;5081196;28;20033;-84
2021/06/22 07:38:44;;;;;;;63.17;8.48;;;;;;;;;;5065627;28;20097;-80
2021/06/22 07:41:11;;;;;;;37.05;7.93;;;;;;;;;;5077695;28;20031;-74
2021/06/22 07:43:37;;;;;;;55.47;8.85;;;;;;;;;;5085414;28;20052;-71
2021/06/22 07:46:03;;;;;;;33.72;7.35;;;;;;;;;;5083432;28;20028;-70
2021/06/22 07:48:29;;;;;;;53.22;9.30;;;;;;;;;;5086538;28;20115;-66
2021/06/22 07:50:57;;;;;;;35.40;8.43;;;;;;;;;;5086023;28;20042;-69
2021/06/22 07:53:23;;;;;;;39.22;7.97;;;;;;;;;;5092802;28;20111;-67
2021/06/22 07:55:49;;;;;;;47.50;8.25;;;;;;;;;;5087700;28;20110;-70
2021/06/22 07:58:15;;;;;;;40.40;8.68;;;;;;;;;;5070839;28;20032;-71
2021/06/22 08:00:42;;;;;;;38.08;8.63;;;;;;;;;;5080938;28;20373;-70
2021/06/22 08:03:09;;;;;;;34.70;8.57;;;;;;;;;;5086458;28;20020;-72
2021/06/22 08:05:36;;;;;;;33.83;8.30;;;;;;;;;;5087752;28;20403;-70
2021/06/22 08:08:02;;;;;;;40.40;7.80;;;;;;;;;;5093367;28;20500;-82
2021/06/22 08:10:28;;;;;;;50.03;8.68;;;;;;;;;;5068451;28;20028;-79
2021/06/22 08:12:55;;;;;;;35.88;7.75;;;;;;;;;;5071703;28;20599;-85
2021/06/22 08:15:21;;;;;;;37.53;8.23;;;;;;;;;;5069181;28;20028;-80
2021/06/22 08:17:47;;;;;;;39.58;8.80;;;;;;;;;;5062688;28;20127;-80
2021/06/22 08:20:14;;;;;;;40.97;8.65;;;;;;;;;;5090291;28;20044;-80
2021/06/22 08:22:40;;;;;;;44.38;8.13;;;;;;;;;;5086455;28;20028;-71
2021/06/22 08:25:06;;;;;;;43.55;8.65;;;;;;;;;;5085240;28;20363;-74
2021/06/22 08:27:32;;;;;;;38.60;7.78;;;;;;;;;;5080670;28;20020;-72
2021/06/22 08:29:58;;;;;;;50.92;9.35;;;;;;;;;;5082022;28;20473;-72
2021/06/22 08:32:24;;;;;;;33.83;8.07;;;;;;;;;;5086535;28;20031;-74
2021/06/22 08:34:51;;;;;;;40.00;8.45;;;;;;;;;;5085850;28;20433;-76
2021/06/22 08:37:17;;;;;;;34.95;8.15;;;;;;;;;;5072532;28;20025;-75
2021/06/22 08:39:43;;;;;;;36.10;7.90;;;;;;;;;;5085949;28;20570;-74
2021/06/22 08:42:10;;;;;;;36.53;8.13;;;;;;;;;;5084031;28;20023;-73
2021/06/22 08:44:40;;;;;;;35.47;7.70;;;;;;;;;;5071796;28;20031;-77
2021/06/22 08:47:06;;;;;;;33.90;7.93;;;;;;;;;;5086736;28;20077;-87
2021/06/22 08:49:34;;;;;;;33.58;8.25;;;;;;;;;;5071082;28;20028;-76
2021/06/22 08:52:01;;;;;;;41.83;7.85;;;;;;;;;;5086595;28;20036;-73
2021/06/22 08:54:28;;;;;;;40.22;8.23;;;;;;;;;;5085222;28;20020;-73
2021/06/22 08:56:55;;;;;;;35.03;7.95;;;;;;;;;;5088031;28;20036;-71
2021/06/22 08:59:22;;;;;;;50.25;9.45;;;;;;;;;;5083338;28;20389;-79
2021/06/22 09:01:48;;;;;;;44.45;7.70;;;;;;;;;;5068023;28;20477;-70
2021/06/22 09:04:16;;;;;;;41.97;8.02;;;;;;;;;;5089199;28;20461;-68
2021/06/22 09:06:43;;;;;;;39.10;8.23;;;;;;;;;;5087005;28;20156;-64
2021/06/22 09:09:09;;;;;;;33.08;7.53;;;;;;;;;;5080836;28;20024;-75
2021/06/22 09:11:38;;;;;;;39.35;8.05;;;;;;;;;;5068965;28;20111;-74
2021/06/22 09:14:05;;;;;;;37.08;8.00;;;;;;;;;;5091294;28;20019;-83
2021/06/22 09:16:32;;;;;;;50.72;8.23;;;;;;;;;;5063758;28;20028;-76
2021/06/22 09:19:02;;;;;;;44.58;7.93;;;;;;;;;;5086673;28;20097;-78
2021/06/22 09:21:29;;;;;;;35.08;8.63;;;;;;;;;;5080856;28;20036;-75
2021/06/22 09:23:57;;;;;;;35.42;7.63;;;;;;;;;;5090244;28;20032;-78
2021/06/22 09:26:30;;;;;;;38.28;8.55;;;;;;;;;;5081901;28;20024;-76
2021/06/22 09:29:07;;;;;;;35.40;7.50;;;;;;;;;;5082405;28;20024;-76
2021/06/22 09:31:34;;;;;;;35.03;8.02;;;;;;;;;;5077501;28;20025;-74
2021/06/22 09:34:00;;;;;;;36.33;9.07;;;;;;;;;;5086739;28;20016;-74
2021/06/22 09:36:27;;;;;;;39.83;8.57;;;;;;;;;;5078291;28;20528;-69
2021/06/22 09:39:05;;;;;;;38.58;8.60;;;;;;;;;;5090552;28;20051;-75
2021/06/22 09:41:39;;;;;;;42.05;8.07;;;;;;;;;;5082665;28;20060;-78
2021/06/22 09:44:09;;;;;;;53.35;9.48;;;;;;;;;;5078688;28;20473;-76
2021/06/22 09:46:35;;;;;;;49.88;9.70;;;;;;;;;;5085213;28;20031;-83
2021/06/22 09:49:02;;;;;;;42.78;9.00;;;;;;;;;;5087818;28;20024;-79
2021/06/22 09:51:34;;;;;;;44.08;9.30;;;;;;;;;;5088864;28;20044;-68
2021/06/22 09:54:20;;;;;;;37.75;8.25;;;;;;;;;;5084520;28;20017;-78
2021/06/22 09:56:57;;;;;;;36.00;7.88;;;;;;;;;;5085365;28;20110;-75
2021/06/22 09:59:23;;;;;;;39.75;8.40;;;;;;;;;;5083538;28;20028;-76
2021/06/22 10:01:52;;;;;;;47.55;8.32;;;;;;;;;;5084841;28;20082;-77
2021/06/22 10:04:27;;;;;;;35.75;7.80;;;;;;;;;;5077805;28;20028;-74
2021/06/22 10:07:00;;;;;;;39.60;7.82;;;;;;;;;;5080904;28;20108;-67
2021/06/22 10:09:26;;;;;;;;;;;;;;;;;;5080285;28;20027;-79
2021/06/22 10:12:22;;;;;;;37.38;8.50;;;;;;;;;;5087927;28;19959;-79
2021/06/22 10:14:49;;;;;;;39.22;8.13;;;;;;;;;;5006344;28;20076;-73
2021/06/22 10:17:18;;;;;;;36.60;8.43;;;;;;;;;;4999828;28;20657;-78
2021/06/22 10:19:46;;;;;;;36.42;7.95;;;;;;;;;;5004455;28;20050;-75
2021/06/22 10:22:12;;;;;;;37.88;8.35;;;;;;;;;;5002338;28;20030;-76
2021/06/22 10:24:43;;;;;;;46.53;8.48;;;;;;;;;;4998368;28;20042;-71
2021/06/22 10:27:10;;;;;;;45.97;8.68;;;;;;;;;;5000015;28;20034;-74
2021/06/22 10:29:36;;;;;;;43.40;8.90;;;;;;;;;;5002185;28;20036;-77
2021/06/22 10:32:03;;;;;;;45.10;8.52;;;;;;;;;;4998929;28;20060;-72
2021/06/22 10:34:30;;;;;;;36.05;8.25;;;;;;;;;;5006656;28;20042;-72
2021/06/22 10:36:57;;;;;;;41.60;8.68;;;;;;;;;;5009743;28;20026;-63
2021/06/22 10:39:29;;;;;;;39.97;8.30;;;;;;;;;;5003286;28;20053;-70
2021/06/22 10:41:56;;;;;;;37.35;8.68;;;;;;;;;;5015826;28;20041;-67
2021/06/22 10:44:27;;;;;;;41.63;8.32;;;;;;;;;;5008913;28;20038;-68
2021/06/22 10:47:11;;;;;;;46.85;9.27;;;;;;;;;;5006513;28;20541;-75
2021/06/22 10:49:55;;;;;;;39.83;8.43;;;;;;;;;;5002701;28;20042;-73
2021/06/22 10:52:40;;;;;;;46.78;7.72;;;;;;;;;;5086141;28;20024;-71
2021/06/22 10:55:06;;;;;;;35.47;8.43;;;;;;;;;;5086555;28;20032;-68
2021/06/22 10:57:51;;;;;;;47.75;8.80;;;;;;;;;;5085281;28;20358;-69
2021/06/22 11:00:17;;;;;;;38.42;8.30;;;;;;;;;;5088418;28;20043;-67
2021/06/22 11:03:02;;;;;;;38.83;7.50;;;;;;;;;;5086526;28;20035;-67
2021/06/22 11:05:28;;;;;;;40.47;9.00;;;;;;;;;;5092258;28;20382;-65
2021/06/22 11:08:15;;;;;;;48.90;7.88;;;;;;;;;;5081953;28;20077;-67
2021/06/22 11:10:42;;;;;;;44.30;8.18;;;;;;;;;;5069222;28;20474;-65
2021/06/22 11:13:09;;;;;;;54.70;8.60;;;;;;;;;;5087817;28;20094;-68
2021/06/22 11:15:44;;;;;;;36.55;8.18;;;;;;;;;;5086429;28;20028;-70
2021/06/22 11:18:10;;;;;;;41.50;9.18;;;;;;;;;;5089735;28;20024;-70
2021/06/22 11:20:37;;;;;;;56.97;9.43;;;;;;;;;;5089187;28;20040;-71
2021/06/22 11:23:07;;;;;;;39.13;8.25;;;;;;;;;;5083030;28;20040;-71
2021/06/22 11:25:45;;;;;;;41.90;8.70;;;;;;;;;;5093819;28;20047;-69
2021/06/22 11:28:11;;;;;;;43.08;8.27;;;;;;;;;;5089996;28;20020;-76
2021/06/22 11:30:48;;;;;;;39.65;8.50;;;;;;;;;;5087331;28;20037;-67
2021/06/22 11:33:29;;;;;;;41.80;7.82;;;;;;;;;;5089023;28;20068;-74
2021/06/22 11:36:14;;;;;;;33.95;8.15;;;;;;;;;;5086025;28;20400;-73
2021/06/22 11:38:40;;;;;;;43.58;7.90;;;;;;;;;;5068048;28;20028;-75
2021/06/22 11:41:13;;;;;;;42.70;8.07;;;;;;;;;;5081236;28;20043;-73
2021/06/22 11:43:39;;;;;;;;;;;;;;;;;;5089320;28;20039;-73
2021/06/22 11:46:23;;;;;;;39.78;8.13;;;;;;;;;;5091987;28;20285;-82
2021/06/22 11:48:56;;;;;;;44.45;8.07;;;;;;;;;;5083115;28;20433;-77
2021/06/22 11:51:41;;;;;;;38.00;8.63;;;;;;;;;;5063414;28;20031;-68
2021/06/22 11:54:07;;;;;;;39.47;8.30;;;;;;;;;;5087787;28;20111;-72
2021/06/22 11:56:35;;;;;;;43.78;8.68;;;;;;;;;;5068671;28;20081;-66
2021/06/22 11:59:01;;;;;;;48.88;9.52;;;;;;;;;;5083103;28;20051;-71
2021/06/22 12:01:27;;;;;;;45.13;9.05;;;;;;;;;;5084802;28;20028;-70
2021/06/22 12:03:54;;;;;;;40.08;8.45;;;;;;;;;;5091159;28;20099;-67
2021/06/22 12:06:24;;;;;;;47.58;8.98;;;;;;;;;;5090522;28;20493;-68
2021/06/22 12:08:50;;;;;;;40.97;9.10;;;;;;;;;;5090343;28;20517;-72
2021/06/22 12:11:30;;;;;;;45.72;9.23;;;;;;;;;;5087248;28;20103;-67
2021/06/22 12:13:56;;;;;;;47.25;9.00;;;;;;;;;;5086765;28;20113;-72
2021/06/22 12:16:27;;;;;;;38.70;8.70;;;;;;;;;;5082307;28;20078;-72
2021/06/22 12:18:57;;;;;;;71.07;10.05;;;;;;;;;;5081468;28;20048;-71
2021/06/22 12:21:25;;;;;;;45.33;8.80;;;;;;;;;;5086109;28;20054;-64
2021/06/22 12:23:53;;;;;;;41.92;8.88;;;;;;;;;;5086141;28;20056;-66
2021/06/22 12:26:19;;;;;;;39.50;8.45;;;;;;;;;;5088464;28;20479;-61
2021/06/22 12:28:45;;;;;;;37.53;9.02;;;;;;;;;;5085901;28;20086;-68
2021/06/22 12:31:13;;;;;;;46.08;9.07;;;;;;;;;;5090849;28;20060;-67
2021/06/22 12:33:40;;;;;;;36.85;8.23;;;;;;;;;;5086816;28;20111;-64
2021/06/22 12:36:07;;;;;;;43.78;8.80;;;;;;;;;;5084131;28;20016;-65
2021/06/22 12:38:34;;;;;;;37.63;7.85;;;;;;;;;;5084542;28;20048;-64
2021/06/22 12:41:04;;;;;;;52.47;8.75;;;;;;;;;;5089375;28;20036;-66
2021/06/22 12:43:46;;;;;;;41.30;8.68;;;;;;;;;;5086282;28;20037;-65
2021/06/22 12:46:13;;;;;;;50.80;8.93;;;;;;;;;;5088818;28;20048;-67
2021/06/22 12:48:40;;;;;;;33.80;7.32;;;;;;;;;;5084623;28;20012;-65
2021/06/22 12:51:06;;;;;;;43.20;9.23;;;;;;;;;;5090083;28;20469;-66
2021/06/22 12:53:32;;;;;;;35.13;8.68;;;;;;;;;;5087807;28;20024;-64
2021/06/22 12:56:08;;;;;;;34.95;8.80;;;;;;;;;;5085260;28;20035;-64
2021/06/22 12:58:47;;;;;;;37.30;9.63;;;;;;;;;;5087267;28;20012;-66
2021/06/22 13:01:43;;;;;;;34.97;8.43;;;;;;;;;;5091245;28;20048;-64
2021/06/22 13:04:10;;;;;;;47.72;9.02;;;;;;;;;;4989162;28;20030;-64
2021/06/22 13:06:43;;;;;;;41.83;9.27;;;;;;;;;;4984940;28;20057;-65
2021/06/22 13:09:10;;;;;;;54.80;9.27;;;;;;;;;;4985672;28;20049;-67
2021/06/22 13:11:38;;;;;;;37.58;8.40;;;;;;;;;;4984739;28;20023;-68
2021/06/22 13:14:14;;;;;;;46.95;8.77;;;;;;;;;;4985662;28;20120;-64
2021/06/22 13:16:41;;;;;;;35.20;8.25;;;;;;;;;;4985449;28;20023;-68
2021/06/22 13:19:10;;;;;;;38.78;8.40;;;;;;;;;;4987863;28;20550;-65
2021/06/22 13:21:46;;;;;;;41.85;7.90;;;;;;;;;;4985426;28;20038;-68
2021/06/22 13:24:12;;;;;;;34.83;8.50;;;;;;;;;;4980159;28;20348;-65
2021/06/22 13:26:41;;;;;;;44.40;9.40;;;;;;;;;;4991192;28;20033;-66
2021/06/22 13:29:07;;;;;;;45.90;9.73;;;;;;;;;;4987961;28;20074;-66
2021/06/22 13:31:35;;;;;;;35.97;7.72;;;;;;;;;;4986729;28;20026;-67
2021/06/22 13:34:02;;;;;;;39.25;8.32;;;;;;;;;;4981300;28;20034;-64
2021/06/22 13:36:29;;;;;;;38.40;8.10;;;;;;;;;;4977045;28;20027;-68
2021/06/22 13:39:03;;;;;;;57.03;9.20;;;;;;;;;;4977481;28;20113;-65
2021/06/22 13:41:29;;;;;;;76.32;10.50;;;;;;;;;;5068301;28;20056;-67
2021/06/22 13:43:55;;;;;;;44.55;9.40;;;;;;;;;;5083261;28;20111;-65
2021/06/22 13:46:25;;;;;;;45.30;8.55;;;;;;;;;;5078729;28;20055;-67
2021/06/22 13:48:52;;;;;;;45.85;9.23;;;;;;;;;;5087470;28;20077;-65
2021/06/22 13:51:27;;;;;;;44.60;7.97;;;;;;;;;;5090795;28;20104;-67
2021/06/22 13:54:02;;;;;;;46.53;8.82;;;;;;;;;;5085516;28;20081;-67
2021/06/22 13:56:31;;;;;;;45.17;8.90;;;;;;;;;;5084061;28;20027;-64
2021/06/22 13:58:57;;;;;;;32.00;8.38;;;;;;;;;;5087768;28;20104;-64
2021/06/22 14:01:23;;;;;;;51.20;9.40;;;;;;;;;;5085481;28;20043;-66
2021/06/22 14:03:49;;;;;;;52.55;9.48;;;;;;;;;;5086308;28;20024;-68
2021/06/22 14:06:16;;;;;;;39.28;8.65;;;;;;;;;;5085394;28;20055;-64
2021/06/22 14:08:42;;;;;;;40.55;8.73;;;;;;;;;;5083740;28;20489;-64
2021/06/22 14:11:10;;;;;;;39.55;9.95;;;;;;;;;;5085076;28;20060;-64
2021/06/22 14:13:36;;;;;;;62.60;10.18;;;;;;;;;;5091134;28;20408;-66
2021/06/22 14:16:02;;;;;;;41.85;8.95;;;;;;;;;;5080078;28;20023;-67
2021/06/22 14:18:30;;;;;;;45.83;8.90;;;;;;;;;;5086877;28;20023;-65
2021/06/22 14:20:57;;;;;;;41.55;8.68;;;;;;;;;;5085508;28;20123;-70
2021/06/22 14:23:23;;;;;;;50.05;8.98;;;;;;;;;;5090731;28;20020;-68
2021/06/22 14:25:50;;;;;;;46.30;8.50;;;;;;;;;;5086445;28;20036;-69
2021/06/22 14:28:21;;;;;;;38.58;8.15;;;;;;;;;;5085800;28;20039;-66
2021/06/22 14:30:48;;;;;;;39.63;8.52;;;;;;;;;;5086736;28;20357;-66
2021/06/22 14:33:14;;;;;;;50.67;9.05;;;;;;;;;;5077135;28;20016;-69
2021/06/22 14:35:41;;;;;;;32.85;8.32;;;;;;;;;;5080382;28;20024;-69
2021/06/22 14:38:07;;;;;;;39.72;8.38;;;;;;;;;;5083147;28;20047;-66